Time;durP1;ratioP1;P1;durP2;ratioP2;P2;SDS_P1;SDS_P2;PMS_P1;PMS_P2;Temp;Humidity;BMP_temperature;BMP_pressure;BME280_temperature;BME280_humidity;BME280_pressure;Samples;Min_cycle;Max_cycle;Signal;HPM_P1;HPM_P2
2023/02/13 00:00:18;;;;;;;11.80;7.93;;;;;;;7.78;100.00;102567.81;5046211;28;20155;-76
2023/02/13 00:02:44;;;;;;;11.30;7.43;;;;;;;7.58;100.00;102536.19;5068960;28;20044;-77
2023/02/13 00:05:11;;;;;;;11.02;7.63;;;;;;;7.08;100.00;102449.25;5064444;28;20045;-77
2023/02/13 00:07:38;;;;;;;11.43;7.88;;;;;;;7.37;100.00;102502.81;5069250;28;20165;-77
2023/02/13 00:10:05;;;;;;;12.93;8.15;;;;;;;7.82;100.00;102559.03;5064367;28;20506;-76
2023/02/13 00:12:32;;;;;;;12.25;8.20;;;;;;;7.67;100.00;102535.31;5068865;28;20080;-75
2023/02/13 00:14:59;;;;;;;11.05;8.13;;;;;;;7.25;100.00;102465.03;5070783;28;20064;-76
2023/02/13 00:17:26;;;;;;;11.73;7.80;;;;;;;7.86;100.00;102566.06;5070017;28;20056;-77
2023/02/13 00:19:53;;;;;;;13.27;8.68;;;;;;;7.44;100.00;102508.94;5067529;28;20139;-77
2023/02/13 00:22:19;;;;;;;13.32;9.57;;;;;;;7.82;100.00;102553.75;5065362;28;20501;-77
2023/02/13 00:24:46;;;;;;;14.65;9.35;;;;;;;7.33;100.00;102474.69;5065504;28;20092;-77
2023/02/13 00:27:12;;;;;;;13.80;9.40;;;;;;;7.53;100.00;102501.06;5064590;28;20045;-76
2023/02/13 00:29:39;;;;;;;13.27;10.10;;;;;;;7.04;100.00;102429.91;5063889;28;20125;-77
2023/02/13 00:32:06;;;;;;;14.38;10.00;;;;;;;7.14;100.00;102446.59;5066052;28;20159;-76
2023/02/13 00:34:33;;;;;;;13.23;9.18;;;;;;;7.09;100.00;102427.25;5060119;28;20045;-77
2023/02/13 00:37:00;;;;;;;13.80;9.73;;;;;;;7.38;100.00;102483.50;5057500;28;20057;-75
2023/02/13 00:39:27;;;;;;;14.40;9.82;;;;;;;7.65;100.00;102529.16;5065404;28;20140;-75
2023/02/13 00:41:53;;;;;;;13.20;9.27;;;;;;;7.07;100.00;102426.41;5063932;28;20045;-75
2023/02/13 00:44:20;;;;;;;12.98;9.48;;;;;;;7.53;100.00;102510.72;5068066;28;20638;-76
2023/02/13 00:46:46;;;;;;;12.98;8.98;;;;;;;7.06;100.00;102442.22;5053111;28;20059;-75
2023/02/13 00:49:13;;;;;;;12.95;9.25;;;;;;;7.57;100.00;102534.41;5067289;28;20465;-75
2023/02/13 00:51:40;;;;;;;13.52;8.05;;;;;;;7.01;100.00;102432.53;5045014;28;20135;-77
2023/02/13 00:54:08;;;;;;;14.57;9.82;;;;;;;7.24;100.00;102474.69;5062863;28;20059;-75
2023/02/13 00:56:37;;;;;;;11.98;8.40;;;;;;;6.13;100.00;102271.06;5062022;28;20053;-75
2023/02/13 00:59:04;;;;;;;12.13;8.85;;;;;;;6.90;100.00;102409.72;5051536;28;20120;-76
2023/02/13 01:01:31;;;;;;;13.98;9.30;;;;;;;6.95;100.00;102429.91;5069320;28;20524;-77
2023/02/13 01:03:57;;;;;;;13.68;8.82;;;;;;;7.00;100.00;102422.00;5071104;28;20048;-75
2023/02/13 01:06:24;;;;;;;12.55;9.32;;;;;;;7.73;100.00;102549.34;5064448;28;20148;-74
2023/02/13 01:08:51;;;;;;;14.00;9.80;;;;;;;7.24;100.00;102461.50;5066819;28;20048;-76
2023/02/13 01:11:18;;;;;;;14.68;9.95;;;;;;;7.29;100.00;102467.66;5060180;28;20128;-74
2023/02/13 01:13:45;;;;;;;15.85;10.25;;;;;;;6.84;100.00;102383.38;5063286;28;20049;-75
2023/02/13 01:16:14;;;;;;;15.93;10.90;;;;;;;6.82;100.00;102398.28;5063870;28;20114;-76
2023/02/13 01:18:40;;;;;;;17.13;10.75;;;;;;;6.99;100.00;102412.34;5066190;28;20428;-74
2023/02/13 01:21:17;;;;;;;16.17;11.00;;;;;;;7.80;100.00;102557.28;5066818;28;20044;-75
2023/02/13 01:23:44;;;;;;;18.27;11.13;;;;;;;7.24;100.00;102455.38;5064093;28;20102;-76
2023/02/13 01:26:21;;;;;;;18.10;11.68;;;;;;;7.58;100.00;102516.84;5063724;28;20045;-74
2023/02/13 01:28:50;;;;;;;16.58;11.55;;;;;;;7.81;100.00;102552.00;5067297;28;20041;-76
2023/02/13 01:31:17;;;;;;;19.40;12.15;;;;;;;7.30;100.00;102464.16;5064753;28;20063;-75
2023/02/13 01:33:44;;;;;;;18.23;11.07;;;;;;;7.38;100.00;102483.50;5062817;28;20536;-76
2023/02/13 01:36:13;;;;;;;17.02;11.38;;;;;;;7.73;100.00;102546.72;5068140;28;20398;-76
2023/02/13 01:38:39;;;;;;;19.58;11.90;;;;;;;7.19;100.00;102455.38;5064441;28;20040;-75
2023/02/13 01:41:09;;;;;;;17.48;11.00;;;;;;;7.46;100.00;102504.56;5065008;28;20808;-75
2023/02/13 01:44:02;;;;;;;15.52;10.30;;;;;;;7.50;100.00;102508.06;5067993;28;20561;-74
2023/02/13 01:46:34;;;;;;;14.35;9.18;;;;;;;7.74;100.00;102550.22;5055459;28;20053;-76
2023/02/13 01:49:14;;;;;;;15.05;10.10;;;;;;;7.71;100.00;102537.06;5063914;28;20032;-76
2023/02/13 01:51:42;;;;;;;15.20;9.60;;;;;;;7.57;100.00;102531.78;5063074;28;20519;-75
2023/02/13 01:54:15;;;;;;;15.40;9.35;;;;;;;7.56;100.00;102524.75;5047763;28;20091;-76
2023/02/13 01:56:47;;;;;;;13.98;9.57;;;;;;;7.54;100.00;102518.63;5066228;28;20110;-75
2023/02/13 01:59:17;;;;;;;13.73;9.20;;;;;;;7.52;100.00;102517.75;5061282;28;20565;-75
2023/02/13 02:01:44;;;;;;;15.80;10.13;;;;;;;7.66;100.00;102536.19;5061298;28;20505;-76
2023/02/13 02:04:32;;;;;;;14.85;9.73;;;;;;;7.24;100.00;102472.03;5068581;28;20040;-76
2023/02/13 02:07:09;;;;;;;14.35;9.30;;;;;;;7.31;100.00;102492.25;5063091;28;20421;-74
2023/02/13 02:09:38;;;;;;;16.25;10.18;;;;;;;7.32;100.00;102509.84;5066433;28;20139;-77
2023/02/13 02:12:09;;;;;;;16.65;10.40;;;;;;;7.47;100.00;102532.69;5072292;28;20056;-77
2023/02/13 02:14:36;;;;;;;14.88;9.95;;;;;;;7.37;100.00;102537.09;5073600;28;20049;-76
2023/02/13 02:17:03;;;;;;;17.38;10.32;;;;;;;7.08;100.00;102485.25;5078071;28;20044;-76
2023/02/13 02:19:35;;;;;;;16.30;10.65;;;;;;;7.27;100.00;102537.06;5079158;28;20064;-77
2023/02/13 02:22:22;;;;;;;16.25;9.93;;;;;;;6.85;100.00;102469.41;5074420;28;20075;-76
2023/02/13 02:25:27;;;;;;;16.08;10.13;;;;;;;7.12;100.00;102531.78;5065170;28;20048;-77
2023/02/13 02:28:18;;;;;;;15.88;10.35;;;;;;;7.08;100.00;102533.53;5063673;28;20036;-76
2023/02/13 02:31:21;;;;;;;14.38;9.77;;;;;;;7.07;100.00;102539.69;5062916;28;20132;-77
2023/02/13 02:34:32;;;;;;;16.63;10.20;;;;;;;6.80;100.00;102490.44;5055347;28;20075;-76
2023/02/13 02:37:23;;;;;;;14.68;9.88;;;;;;;6.91;100.00;102530.88;4980561;28;20164;-76
2023/02/13 02:40:16;;;;;;;17.83;10.95;;;;;;;6.02;100.00;102388.50;5058339;28;20051;-77
2023/02/13 02:43:11;;;;;;;17.10;10.93;;;;;;;6.67;100.00;102517.63;5065686;28;20052;-76
2023/02/13 02:45:51;;;;;;;17.08;10.75;;;;;;;6.53;100.00;102512.34;5061892;28;20060;-76
2023/02/13 02:51:25;;;;;;;17.00;10.82;;;;;;;6.46;100.00;102528.97;5066272;28;20040;-78
2023/02/13 02:57:07;;;;;;;18.15;11.43;;;;;;;6.21;100.00;102500.81;5059980;28;20049;-77
2023/02/13 03:08:12;;;;;;;17.73;11.25;;;;;;;5.73;100.00;102460.19;5062964;28;20593;-76
2023/02/13 03:13:41;;;;;;;20.73;11.80;;;;;;;6.03;100.00;102527.00;5061202;28;20052;-76
2023/02/13 03:22:40;;;;;;;23.02;13.05;;;;;;;5.75;100.00;102503.16;5068727;28;20059;-79
2023/02/13 03:25:34;;;;;;;23.45;12.82;;;;;;;5.88;100.00;102533.03;5059677;28;20481;-78
2023/02/13 03:31:35;;;;;;;18.65;11.88;;;;;;;5.53;100.00;102503.84;5062677;28;20442;-78
2023/02/13 03:34:15;;;;;;;19.80;12.43;;;;;;;5.47;100.00;102511.72;5064720;28;20136;-77
2023/02/13 03:39:46;;;;;;;22.83;13.23;;;;;;;5.18;100.00;102475.59;5067038;28;20098;-77
2023/02/13 03:42:52;;;;;;;23.15;12.20;;;;;;;5.49;100.00;102545.03;5062273;28;20140;-76
2023/02/13 03:51:11;;;;;;;24.90;13.45;;;;;;;5.27;100.00;102540.44;5054911;28;20670;-76
2023/02/13 03:53:41;;;;;;;23.90;13.75;;;;;;;4.66;100.00;102447.09;5067169;28;20057;-75
2023/02/13 03:59:13;;;;;;;21.17;12.35;;;;;;;4.82;100.00;102501.50;5060114;28;20064;-76
2023/02/13 04:01:45;;;;;;;24.63;14.02;;;;;;;4.75;100.00;102494.41;5065363;28;20057;-76
2023/02/13 04:04:37;;;;;;;25.48;13.70;;;;;;;5.01;100.00;102545.44;5060498;28;20049;-77
2023/02/13 04:07:11;;;;;;;27.88;15.20;;;;;;;4.20;100.00;102408.13;5064396;28;20044;-77
2023/02/13 04:09:42;;;;;;;26.33;15.07;;;;;;;4.05;100.00;102383.50;5066318;28;20045;-76
2023/02/13 04:12:14;;;;;;;24.13;13.48;;;;;;;4.80;100.00;102529.47;5067865;28;20127;-77
2023/02/13 04:14:48;;;;;;;25.70;14.35;;;;;;;4.44;100.00;102461.72;5067866;28;20044;-76
2023/02/13 04:17:23;;;;;;;27.00;14.93;;;;;;;4.48;100.00;102487.13;5063680;28;20052;-75
2023/02/13 04:19:50;;;;;;;22.13;13.90;;;;;;;4.09;100.00;102429.84;5066135;28;20529;-75
2023/02/13 04:22:17;;;;;;;28.02;14.73;;;;;;;4.61;100.00;102523.13;5064892;28;20052;-75
2023/02/13 04:24:44;;;;;;;23.20;13.15;;;;;;;3.94;100.00;102420.03;5069401;28;20686;-76
2023/02/13 04:27:14;;;;;;;26.48;14.40;;;;;;;4.65;100.00;102537.16;5067543;28;20067;-75
2023/02/13 04:29:40;;;;;;;27.13;15.82;;;;;;;4.45;100.00;102518.56;5069113;28;20120;-76
2023/02/13 04:32:09;;;;;;;30.85;16.00;;;;;;;4.47;100.00;102535.22;5067999;28;20128;-76
2023/02/13 04:34:36;;;;;;;26.27;15.77;;;;;;;2.81;100.00;102253.56;5067123;28;20084;-76
2023/02/13 04:37:03;;;;;;;26.92;14.40;;;;;;;3.29;100.00;102345.84;5068259;28;20048;-77
2023/02/13 04:39:29;;;;;;;28.73;15.75;;;;;;;3.51;100.00;102395.91;5065794;28;20045;-77
2023/02/13 04:41:56;;;;;;;29.30;15.68;;;;;;;3.92;100.00;102475.94;5063981;28;20052;-77
2023/02/13 04:44:22;;;;;;;28.48;14.68;;;;;;;4.33;100.00;102545.53;5066197;28;20135;-77
2023/02/13 04:46:49;;;;;;;27.40;15.13;;;;;;;3.62;100.00;102431.88;5071015;28;20044;-75
2023/02/13 04:49:16;;;;;;;29.80;15.30;;;;;;;3.60;100.00;102437.06;5061962;28;20159;-75
2023/02/13 04:51:42;;;;;;;28.13;15.45;;;;;;;3.70;100.00;102451.19;5071010;28;20086;-79
2023/02/13 04:54:10;;;;;;;25.77;14.18;;;;;;;3.87;100.00;102499.47;5067972;28;20122;-77
2023/02/13 04:56:36;;;;;;;24.63;14.45;;;;;;;4.15;100.00;102538.31;5067177;28;20118;-76
2023/02/13 04:59:10;;;;;;;27.98;15.82;;;;;;;3.58;100.00;102449.28;5063378;28;20064;-76
2023/02/13 05:01:37;;;;;;;26.55;15.13;;;;;;;3.79;100.00;102470.50;5064122;28;20052;-78
2023/02/13 05:04:03;;;;;;;31.80;16.55;;;;;;;3.90;100.00;102493.38;5061674;28;20045;-77
2023/02/13 05:06:30;;;;;;;28.17;15.73;;;;;;;3.52;100.00;102441.31;5067670;28;20166;-77
2023/02/13 05:08:56;;;;;;;32.95;17.55;;;;;;;3.56;100.00;102447.47;5067289;28;20058;-77
2023/02/13 05:11:23;;;;;;;29.00;15.45;;;;;;;3.74;100.00;102480.06;5068215;28;20048;-76
2023/02/13 05:13:50;;;;;;;32.33;15.98;;;;;;;3.53;100.00;102437.84;5064140;28;20044;-77
2023/02/13 05:16:16;;;;;;;27.45;15.52;;;;;;;4.18;100.00;102547.94;5064822;28;20135;-76
2023/02/13 05:18:43;;;;;;;29.75;15.52;;;;;;;4.13;100.00;102531.25;5070792;28;20044;-75
2023/02/13 05:23:55;;;;;;;25.40;15.02;;;;;;;3.58;100.00;102432.66;5069842;28;20131;-78
2023/02/13 05:26:22;;;;;;;32.33;15.98;;;;;;;3.57;100.00;102446.63;5066892;28;20076;-77
2023/02/13 05:31:33;;;;;;;29.65;16.30;;;;;;;3.16;100.00;102386.66;5069201;28;20131;-78
2023/02/13 05:34:00;;;;;;;28.95;15.95;;;;;;;4.09;100.00;102540.81;5070712;28;20055;-77
2023/02/13 05:36:27;;;;;;;29.35;16.52;;;;;;;3.52;100.00;102444.81;5069167;28;20053;-77
2023/02/13 05:38:54;;;;;;;29.73;15.68;;;;;;;3.75;100.00;102476.59;5071941;28;20051;-78
2023/02/13 05:41:20;;;;;;;25.83;15.65;;;;;;;3.41;100.00;102422.84;5071521;28;20043;-77
2023/02/13 05:43:47;;;;;;;29.27;16.30;;;;;;;3.65;100.00;102460.69;5068251;28;20076;-78
2023/02/13 05:46:14;;;;;;;30.90;16.75;;;;;;;2.98;100.00;102350.63;5070779;28;20080;-77
2023/02/13 05:48:41;;;;;;;29.98;16.48;;;;;;;3.60;100.00;102472.88;5069912;28;20131;-77
2023/02/13 05:51:08;;;;;;;30.75;17.05;;;;;;;3.07;100.00;102402.22;5070870;28;20036;-78
2023/02/13 05:53:35;;;;;;;29.77;15.93;;;;;;;3.57;100.00;102494.66;5070887;28;20045;-79
2023/02/13 05:56:03;;;;;;;28.35;16.30;;;;;;;3.23;100.00;102460.94;5048712;28;20709;-75
2023/02/13 05:58:30;;;;;;;33.25;18.20;;;;;;;2.79;100.00;102401.78;5070918;28;20049;-78
2023/02/13 06:00:59;;;;;;;33.78;18.95;;;;;;;2.60;100.00;102375.28;5070919;28;20053;-77
2023/02/13 06:03:30;;;;;;;32.50;18.70;;;;;;;2.54;100.00;102349.88;5070785;28;20056;-77
2023/02/13 06:05:58;;;;;;;33.35;18.45;;;;;;;2.89;100.00;102402.81;5070549;28;20068;-78
2023/02/13 06:08:25;;;;;;;34.47;18.33;;;;;;;3.75;100.00;102564.81;5068732;28;20128;-77
2023/02/13 06:10:51;;;;;;;33.92;18.35;;;;;;;2.28;100.00;102325.91;5071058;28;20127;-76
2023/02/13 06:13:20;;;;;;;34.53;18.10;;;;;;;3.15;100.00;102464.28;5063627;28;20157;-76
2023/02/13 06:15:46;;;;;;;32.97;18.30;;;;;;;3.59;100.00;102539.22;5064471;28;20044;-75
2023/02/13 06:18:13;;;;;;;33.55;17.17;;;;;;;3.32;100.00;102487.25;5069644;28;20055;-76
2023/02/13 06:20:40;;;;;;;32.92;18.23;;;;;;;3.25;100.00;102472.31;5069587;28;20041;-75
2023/02/13 06:23:06;;;;;;;35.95;18.95;;;;;;;3.25;100.00;102469.69;5051335;28;20048;-76
2023/02/13 06:25:35;;;;;;;33.60;17.17;;;;;;;3.59;100.00;102540.09;5068566;28;20132;-76
2023/02/13 06:28:03;;;;;;;34.88;19.17;;;;;;;2.49;100.00;102364.66;5069199;28;20135;-77
2023/02/13 06:30:33;;;;;;;36.33;18.65;;;;;;;2.09;100.00;102309.03;5066124;28;20389;-75
2023/02/13 06:33:00;;;;;;;34.40;18.38;;;;;;;3.47;100.00;102537.25;5068581;28;20036;-78
2023/02/13 06:35:28;;;;;;;37.25;19.75;;;;;;;2.36;100.00;102353.06;5069294;28;20044;-77
2023/02/13 06:37:55;;;;;;;36.33;19.83;;;;;;;2.44;100.00;102379.34;5069236;28;20442;-76
2023/02/13 06:40:22;;;;;;;32.15;18.23;;;;;;;1.94;100.00;102293.06;5068711;28;20042;-77
2023/02/13 06:42:48;;;;;;;32.60;17.88;;;;;;;2.06;100.00;102310.69;5069837;28;20040;-76
2023/02/13 06:45:16;;;;;;;34.28;18.17;;;;;;;3.51;100.00;102542.59;5068299;28;20139;-77
2023/02/13 06:47:46;;;;;;;31.17;18.27;;;;;;;2.15;100.00;102316.09;5068257;28;20132;-76
2023/02/13 06:50:19;;;;;;;32.08;18.65;;;;;;;3.03;100.00;102458.88;5061642;28;20449;-76
2023/02/13 06:52:50;;;;;;;35.72;18.63;;;;;;;1.99;100.00;102261.81;5061881;28;20040;-77
2023/02/13 06:55:17;;;;;;;37.13;18.83;;;;;;;3.24;100.00;102500.25;5067780;28;20068;-76
2023/02/13 06:57:44;;;;;;;37.28;19.45;;;;;;;3.03;100.00;102464.09;5069517;28;20539;-77
2023/02/13 07:00:14;;;;;;;39.67;19.70;;;;;;;3.50;100.00;102524.22;5070816;28;20052;-78
2023/02/13 07:02:45;;;;;;;36.95;20.30;;;;;;;3.41;100.00;102505.75;5071464;28;20086;-78
2023/02/13 07:05:12;;;;;;;36.28;19.38;;;;;;;3.76;100.00;102569.19;5059710;28;20128;-80
2023/02/13 07:07:40;;;;;;;32.15;18.30;;;;;;;2.63;100.00;102370.09;5069975;28;20059;-80
2023/02/13 07:10:11;;;;;;;34.13;19.55;;;;;;;2.24;100.00;102320.59;5071701;28;20453;-78
2023/02/13 07:12:38;;;;;;;33.33;18.52;;;;;;;2.81;100.00;102420.13;5070737;28;20052;-80
2023/02/13 07:15:06;;;;;;;37.10;20.27;;;;;;;3.12;100.00;102474.75;5062010;28;20041;-81
2023/02/13 07:17:33;;;;;;;35.20;19.63;;;;;;;2.61;100.00;102403.19;5065757;28;20053;-79
2023/02/13 07:20:13;;;;;;;34.73;19.43;;;;;;;2.14;100.00;102298.66;5066995;28;20060;-78
2023/02/13 07:22:40;;;;;;;32.78;18.48;;;;;;;2.36;100.00;102328.69;5070815;28;20049;-79
2023/02/13 07:25:06;;;;;;;36.00;19.15;;;;;;;2.78;100.00;102394.78;5071479;28;20071;-80
2023/02/13 07:27:33;;;;;;;36.80;19.85;;;;;;;2.63;100.00;102349.19;5071142;28;20045;-80
2023/02/13 07:30:02;;;;;;;34.33;19.55;;;;;;;3.91;100.00;102589.50;5069059;28;20056;-79
2023/02/13 07:32:31;;;;;;;34.80;19.85;;;;;;;2.80;100.00;102366.03;5062888;28;20106;-80
2023/02/13 07:35:01;;;;;;;33.60;19.15;;;;;;;2.60;100.00;102317.75;5065159;28;20493;-78
2023/02/13 07:37:29;;;;;;;37.33;19.15;;;;;;;3.71;100.00;102493.13;5070205;28;20063;-78
2023/02/13 07:39:58;;;;;;;;;;;;;;;4.20;100.00;102567.22;5069293;28;20047;-80
2023/02/13 07:42:25;;;;;;;33.08;19.45;;;;;;;3.52;100.00;102417.72;5074027;28;19944;-77
2023/02/13 07:44:54;;;;;;;37.95;19.38;;;;;;;3.55;100.00;102423.03;5072073;28;20048;-79
2023/02/13 07:47:20;;;;;;;34.70;19.30;;;;;;;4.12;100.00;102462.22;5072798;28;20507;-79
2023/02/13 07:49:49;;;;;;;36.42;19.63;;;;;;;4.38;100.00;102478.28;5066271;28;20437;-79
2023/02/13 07:52:15;;;;;;;34.20;19.10;;;;;;;3.72;100.00;102337.69;5071988;28;20386;-79
2023/02/13 07:54:46;;;;;;;35.33;19.50;;;;;;;5.09;100.00;102530.63;5067077;28;20087;-78
2023/02/13 07:57:13;;;;;;;;;;;;;;;5.45;100.00;102569.50;5067353;28;20075;-77
2023/02/13 07:59:40;;;;;;;35.00;18.60;;;;;;;4.64;100.00;102419.94;5072366;28;19931;-81
2023/02/13 08:02:11;;;;;;;32.22;18.23;;;;;;;4.79;100.00;102422.72;5071829;28;20154;-81
2023/02/13 08:04:39;;;;;;;34.95;19.52;;;;;;;5.03;100.00;102449.19;5079121;28;20045;-78
2023/02/13 08:07:06;;;;;;;34.55;19.98;;;;;;;4.40;100.00;102350.66;5078973;28;20045;-78
2023/02/13 08:12:18;;;;;;;36.17;19.80;;;;;;;5.65;100.00;102522.38;5075974;28;20040;-79
2023/02/13 08:14:45;;;;;;;31.33;19.00;;;;;;;5.56;100.00;102488.13;5073039;28;20608;-80
2023/02/13 08:17:12;;;;;;;34.30;19.73;;;;;;;6.12;100.00;102577.94;5069485;28;20051;-78
2023/02/13 08:19:39;;;;;;;35.47;19.65;;;;;;;5.46;100.00;102460.03;5071967;28;20076;-79
2023/02/13 08:22:05;;;;;;;33.53;19.15;;;;;;;5.50;100.00;102456.56;5072612;28;20043;-78
2023/02/13 08:24:32;;;;;;;37.00;20.17;;;;;;;6.03;100.00;102522.63;5068875;28;20144;-80
2023/02/13 08:26:59;;;;;;;35.38;19.35;;;;;;;6.34;100.00;102592.94;5064939;28;20041;-78
2023/02/13 08:29:25;;;;;;;35.28;19.15;;;;;;;5.77;100.00;102503.16;5063267;28;20120;-79
2023/02/13 08:31:52;;;;;;;34.70;20.02;;;;;;;5.61;100.00;102497.81;5073940;28;20067;-79
2023/02/13 08:34:18;;;;;;;35.63;19.83;;;;;;;5.52;100.00;102463.56;5068882;28;20109;-80
2023/02/13 08:36:45;;;;;;;34.75;20.15;;;;;;;5.95;100.00;102508.56;5067862;28;20047;-78
2023/02/13 08:39:11;;;;;;;35.33;19.83;;;;;;;5.41;100.00;102415.31;5070576;28;20036;-80
2023/02/13 08:41:38;;;;;;;36.80;19.40;;;;;;;6.00;100.00;102535.75;5071704;28;20131;-79
2023/02/13 08:44:05;;;;;;;34.08;19.00;;;;;;;5.85;100.00;102533.88;5069225;28;20135;-79
2023/02/13 08:46:31;;;;;;;35.42;20.40;;;;;;;4.90;100.00;102389.56;5066553;28;20041;-79
2023/02/13 08:48:58;;;;;;;31.10;18.90;;;;;;;5.80;100.00;102532.09;5052096;28;20083;-80
2023/02/13 08:51:25;;;;;;;33.88;20.17;;;;;;;5.84;100.00;102547.88;5070207;28;20036;-78
2023/02/13 08:53:51;;;;;;;38.03;20.90;;;;;;;6.10;100.00;102594.56;5063034;28;20054;-76
2023/02/13 08:56:18;;;;;;;33.55;19.67;;;;;;;5.90;100.00;102553.22;5062149;28;20087;-75
2023/02/13 08:58:47;;;;;;;33.20;19.77;;;;;;;6.12;100.00;102582.31;5063615;28;20050;-75
2023/02/13 09:01:14;;;;;;;33.50;19.42;;;;;;;6.13;100.00;102576.19;5059974;28;20041;-76
2023/02/13 09:03:41;;;;;;;37.42;20.23;;;;;;;5.82;100.00;102520.72;5070112;28;20424;-77
2023/02/13 09:06:07;;;;;;;32.92;19.45;;;;;;;5.96;100.00;102534.88;5065709;28;20171;-77
2023/02/13 09:08:35;;;;;;;34.05;19.23;;;;;;;6.18;100.00;102580.56;5068792;28;20481;-76
2023/02/13 09:11:04;;;;;;;35.42;20.63;;;;;;;5.96;100.00;102531.38;5048058;28;20044;-76
2023/02/13 09:13:33;;;;;;;33.70;19.92;;;;;;;6.35;100.00;102588.56;5061200;28;20077;-77
2023/02/13 09:16:01;;;;;;;31.95;17.98;;;;;;;5.60;100.00;102439.97;5066621;28;20063;-76
2023/02/13 09:18:27;;;;;;;32.70;18.63;;;;;;;6.46;100.00;102576.34;5063929;28;20110;-77
2023/02/13 09:21:02;;;;;;;33.95;19.05;;;;;;;6.14;100.00;102481.47;5070414;28;20054;-78
2023/02/13 09:23:31;;;;;;;29.02;17.65;;;;;;;6.72;100.00;102588.75;5067806;28;20050;-77
2023/02/13 09:25:59;;;;;;;32.53;18.45;;;;;;;6.67;100.00;102573.81;5066453;28;20045;-77
2023/02/13 09:28:28;;;;;;;28.98;16.67;;;;;;;6.77;100.00;102571.22;5069217;28;20048;-75
2023/02/13 09:30:55;;;;;;;32.33;17.75;;;;;;;6.73;100.00;102549.25;5066339;28;20040;-77
2023/02/13 09:33:22;;;;;;;29.02;16.85;;;;;;;6.80;100.00;102534.34;5053396;28;20044;-76
2023/02/13 09:35:49;;;;;;;27.67;16.13;;;;;;;6.68;100.00;102493.06;5063550;28;20056;-77
2023/02/13 09:38:15;;;;;;;29.55;17.40;;;;;;;7.16;100.00;102571.31;5069178;28;20056;-78
2023/02/13 09:40:48;;;;;;;27.92;15.80;;;;;;;6.57;100.00;102463.22;5052787;28;21339;-77
2023/02/13 09:43:32;;;;;;;25.63;16.08;;;;;;;7.29;100.00;102580.09;5065882;28;20512;-77
2023/02/13 09:46:06;;;;;;;26.23;15.85;;;;;;;6.82;100.00;102495.72;5060989;28;20059;-77
2023/02/13 09:48:37;;;;;;;24.60;14.20;;;;;;;6.95;100.00;102493.13;5052313;28;20485;-78
2023/02/13 09:51:04;;;;;;;25.27;13.57;;;;;;;7.57;100.00;102578.34;5063082;28;20131;-77
2023/02/13 09:53:35;;;;;;;23.77;13.75;;;;;;;7.32;100.00;102519.50;5061942;28;20132;-78
2023/02/13 09:56:53;;;;;;;24.88;14.02;;;;;;;7.66;100.00;102584.53;5046759;28;20054;-77
2023/02/13 09:59:57;;;;;;;23.73;14.15;;;;;;;7.82;100.00;102584.53;5066026;28;20053;-77
2023/02/13 10:02:44;;;;;;;22.10;14.13;;;;;;;7.90;100.00;102580.09;5065518;28;20047;-76
2023/02/13 10:05:38;;;;;;;24.25;14.52;;;;;;;7.94;100.00;102584.50;5053241;28;20051;-76
2023/02/13 10:08:17;;;;;;;25.38;13.88;;;;;;;7.77;100.00;102558.16;5064810;28;20045;-77
2023/02/13 10:10:53;;;;;;;25.77;14.30;;;;;;;7.84;100.00;102551.13;5069377;28;20417;-77
2023/02/13 10:13:32;;;;;;;22.95;13.60;;;;;;;8.08;100.00;102588.88;5043971;28;20074;-77
2023/02/13 10:16:16;;;;;;;23.42;13.60;;;;;;;8.09;100.00;102589.75;5068088;28;20495;-77
2023/02/13 10:18:54;;;;;;;25.95;15.27;;;;;;;7.90;100.00;102557.25;5066028;28;20064;-77
2023/02/13 10:21:26;;;;;;;24.83;14.32;;;;;;;7.65;100.00;102502.78;5063129;28;20124;-76
2023/02/13 10:24:10;;;;;;;25.00;14.70;;;;;;;8.25;100.00;102590.59;5061744;28;20056;-76
2023/02/13 10:26:44;;;;;;;23.35;14.60;;;;;;;7.63;100.00;102473.78;5061620;28;20075;-76
2023/02/13 10:32:17;;;;;;;26.25;15.15;;;;;;;8.26;100.00;102561.56;5063903;28;20047;-76
2023/02/13 10:34:45;;;;;;;25.75;14.50;;;;;;;8.08;100.00;102517.63;5067223;28;20052;-77
2023/02/13 10:37:18;;;;;;;27.50;15.43;;;;;;;8.53;100.00;102587.03;5065384;28;20090;-77
2023/02/13 10:39:48;;;;;;;27.35;15.00;;;;;;;8.64;100.00;102587.88;5068778;28;20138;-77
2023/02/13 10:42:45;;;;;;;26.20;15.73;;;;;;;8.77;100.00;102575.50;5064501;28;20044;-75
2023/02/13 10:45:42;;;;;;;24.23;14.38;;;;;;;8.66;100.00;102551.75;5043554;28;20047;-77
2023/02/13 10:48:30;;;;;;;24.25;14.15;;;;;;;8.89;100.00;102567.50;5063117;28;20047;-76
2023/02/13 10:50:57;;;;;;;24.52;14.23;;;;;;;8.97;100.00;102564.84;5060297;28;20040;-76
2023/02/13 10:53:41;;;;;;;22.67;14.98;;;;;;;8.03;100.00;102405.94;5067264;28;20045;-75
2023/02/13 10:56:30;;;;;;;25.58;14.50;;;;;;;9.09;100.00;102570.03;5047027;28;20048;-77
2023/02/13 10:59:17;;;;;;;21.85;13.82;;;;;;;9.07;100.00;102564.75;5069199;28;20049;-79
2023/02/13 11:01:56;;;;;;;24.33;14.93;;;;;;;9.06;100.00;102559.47;5068632;28;20453;-76
2023/02/13 11:04:23;;;;;;;24.88;14.13;;;;;;;8.18;100.00;102394.47;5066768;28;20044;-78
2023/02/13 11:07:01;;;;;;;25.40;14.75;;;;;;;8.87;100.00;102490.00;5069024;28;20485;-77
2023/02/13 11:09:37;;;;;;;21.13;13.45;;;;;;;8.28;98.91;102364.47;5063949;28;20105;-77
2023/02/13 11:12:30;;;;;;;24.15;12.98;;;;;;;9.36;98.21;102537.22;5063941;28;20040;-76
2023/02/13 11:15:05;;;;;;;21.05;13.60;;;;;;;8.67;97.67;102395.03;5065397;28;20131;-78
2023/02/13 11:17:39;;;;;;;24.42;13.30;;;;;;;9.33;96.41;102502.88;5049541;28;20064;-79
2023/02/13 11:20:30;;;;;;;22.27;13.70;;;;;;;9.21;97.81;102474.78;5073380;28;20041;-78
2023/02/13 11:23:30;;;;;;;23.15;13.70;;;;;;;9.67;98.64;102524.63;5053978;28;20100;-79
2023/02/13 11:26:03;;;;;;;23.27;12.52;;;;;;;9.41;93.37;102467.56;5065350;28;20040;-80
2023/02/13 11:28:33;;;;;;;18.25;11.68;;;;;;;9.10;90.91;102384.13;5068722;28;20048;-77
2023/02/13 11:31:19;;;;;;;22.13;12.85;;;;;;;9.98;91.01;102512.84;5065688;28;20132;-80
2023/02/13 11:33:46;;;;;;;17.30;11.32;;;;;;;9.09;89.65;102354.19;5066899;28;20053;-78
2023/02/13 11:36:33;;;;;;;20.20;12.25;;;;;;;10.03;89.27;102491.63;5067874;28;20040;-78
2023/02/13 11:39:06;;;;;;;19.73;12.15;;;;;;;10.26;88.69;102516.06;5066881;28;20488;-80
2023/02/13 11:41:40;;;;;;;17.20;11.80;;;;;;;10.25;88.84;102505.50;5051627;28;20563;-79
2023/02/13 11:44:22;;;;;;;18.30;11.27;;;;;;;10.01;86.90;102462.50;5074425;28;20461;-78
2023/02/13 11:46:50;;;;;;;21.33;10.63;;;;;;;9.79;86.26;102405.44;5069211;28;20084;-79
2023/02/13 11:49:25;;;;;;;18.52;11.38;;;;;;;9.65;85.92;102378.25;5067967;28;20124;-78
2023/02/13 11:51:54;;;;;;;17.73;11.48;;;;;;;10.32;86.44;102494.81;5068781;28;20041;-76
2023/02/13 11:54:23;;;;;;;18.58;10.57;;;;;;;10.29;87.24;102497.50;5070800;28;20140;-76
2023/02/13 11:56:53;;;;;;;16.55;10.88;;;;;;;9.57;85.68;102365.13;5063183;28;20464;-75
2023/02/13 11:59:41;;;;;;;15.73;10.68;;;;;;;10.25;85.63;102466.66;5066021;28;20044;-76
2023/02/13 12:02:17;;;;;;;15.43;10.85;;;;;;;10.35;83.67;102456.84;5066530;28;20136;-76
2023/02/13 12:04:45;;;;;;;15.15;10.43;;;;;;;10.70;80.76;102498.75;5064498;28;20608;-75
2023/02/13 12:07:29;;;;;;;19.40;10.00;;;;;;;10.52;78.37;102458.38;5065556;28;20562;-77
2023/02/13 12:10:13;;;;;;;17.10;9.77;;;;;;;10.24;78.55;102413.72;5062188;28;20440;-76
2023/02/13 12:12:46;;;;;;;14.45;9.45;;;;;;;10.33;76.20;102418.91;5064769;28;20045;-76
2023/02/13 12:15:25;;;;;;;15.80;9.63;;;;;;;10.50;78.01;102456.63;5071033;28;20512;-77
2023/02/13 12:18:07;;;;;;;13.60;9.27;;;;;;;10.80;78.37;102493.28;5068008;28;20055;-76
2023/02/13 12:20:59;;;;;;;14.10;9.35;;;;;;;10.82;76.08;102480.88;5069457;28;20048;-76
2023/02/13 12:23:48;;;;;;;15.82;9.43;;;;;;;10.95;74.23;102484.22;5023025;28;20052;-76